createdAt,value
2023-08-17T00:01:40.077Z,80.94
2023-08-17T00:04:07.020Z,80.57
2023-08-17T00:06:33.962Z,80.16
2023-08-17T00:09:00.684Z,80.19
2023-08-17T00:11:27.459Z,79.76
2023-08-17T00:13:54.266Z,79.93
2023-08-17T00:16:21.074Z,78.92
2023-08-17T00:18:49.376Z,78.31
2023-08-17T00:21:16.175Z,78.11
2023-08-17T00:23:42.918Z,78.41
2023-08-17T00:26:10.445Z,77.85
2023-08-17T00:28:37.333Z,78.43
2023-08-17T00:31:04.091Z,79.77
2023-08-17T00:33:31.013Z,80.61
2023-08-17T00:35:57.767Z,81.30
2023-08-17T00:38:24.503Z,80.88
2023-08-17T00:40:51.331Z,81.49
2023-08-17T00:43:18.484Z,81.17
2023-08-17T00:45:47.901Z,83.43
2023-08-17T00:48:15.522Z,83.96
2023-08-17T00:50:42.774Z,83.46
2023-08-17T00:53:14.762Z,83.22
2023-08-17T00:55:41.888Z,82.05
2023-08-17T00:58:08.932Z,81.64
2023-08-17T01:00:36.240Z,81.14
2023-08-17T01:03:03.970Z,81.33
2023-08-17T01:05:34.029Z,80.48
2023-08-17T01:08:01.739Z,81.08
2023-08-17T01:10:42.513Z,80.40
2023-08-17T01:13:22.288Z,80.60
2023-08-17T01:15:57.820Z,79.95
2023-08-17T01:18:32.154Z,79.71
2023-08-17T01:20:59.794Z,80.09
2023-08-17T01:23:26.599Z,80.85
2023-08-17T01:25:55.036Z,82.46
2023-08-17T01:28:21.935Z,82.36
2023-08-17T01:31:17.637Z,83.78
2023-08-17T01:33:53.335Z,82.26
2023-08-17T01:36:31.287Z,81.29
2023-08-17T01:38:58.412Z,80.09
2023-08-17T01:41:28.032Z,79.81
2023-08-17T01:43:56.214Z,79.84
2023-08-17T01:46:23.075Z,79.42
2023-08-17T01:48:49.982Z,79.55
2023-08-17T01:51:23.361Z,79.40
2023-08-17T01:53:50.311Z,78.88
2023-08-17T01:56:17.094Z,78.61
2023-08-17T01:58:44.112Z,78.71
2023-08-17T02:01:11.004Z,78.86
2023-08-17T02:03:37.891Z,79.14
2023-08-17T02:06:04.695Z,82.95
2023-08-17T02:08:31.643Z,82.87
2023-08-17T02:10:58.602Z,82.33
2023-08-17T02:13:25.638Z,85.60
2023-08-17T02:15:52.446Z,84.92
2023-08-17T02:18:19.268Z,83.75
2023-08-17T02:20:46.989Z,82.15
2023-08-17T02:23:13.788Z,81.45
2023-08-17T02:25:41.206Z,81.87
2023-08-17T02:28:08.285Z,84.71
2023-08-17T02:30:35.361Z,83.96
2023-08-17T02:33:02.386Z,82.49
2023-08-17T02:35:29.237Z,82.16
2023-08-17T02:37:56.121Z,81.53
2023-08-17T02:40:23.100Z,83.06
2023-08-17T02:42:49.934Z,82.54
2023-08-17T02:45:16.829Z,82.69
2023-08-17T02:47:43.691Z,82.82
2023-08-17T02:50:11.425Z,82.83
2023-08-17T02:52:38.314Z,81.83
2023-08-17T02:55:05.730Z,80.90
2023-08-17T02:57:32.825Z,81.60
2023-08-17T02:59:59.857Z,82.02
2023-08-17T03:02:27.072Z,82.41
2023-08-17T03:04:53.997Z,82.32
2023-08-17T03:07:20.710Z,82.55
2023-08-17T03:09:47.381Z,84.21
2023-08-17T03:12:14.159Z,84.15
2023-08-17T03:14:41.009Z,83.54
2023-08-17T03:17:07.809Z,82.85
2023-08-17T03:19:34.557Z,82.10
2023-08-17T03:22:01.305Z,82.03
2023-08-17T03:24:28.165Z,82.23
2023-08-17T03:26:54.859Z,83.09
2023-08-17T03:29:21.773Z,82.80
2023-08-17T03:31:48.809Z,82.90
2023-08-17T03:34:15.524Z,83.12
2023-08-17T03:36:42.568Z,82.91
2023-08-17T03:39:09.369Z,83.02
2023-08-17T03:41:37.929Z,82.05
2023-08-17T03:44:07.165Z,81.53
2023-08-17T03:46:35.350Z,80.76
2023-08-17T03:49:05.011Z,80.55
2023-08-17T03:51:31.941Z,81.00
2023-08-17T03:53:59.115Z,80.68
2023-08-17T03:56:26.588Z,80.74
2023-08-17T03:58:54.851Z,81.20
2023-08-17T04:01:21.676Z,81.38
2023-08-17T04:03:48.445Z,81.60
2023-08-17T04:06:15.217Z,80.75
2023-08-17T04:08:43.114Z,80.53
2023-08-17T04:11:11.638Z,80.78
2023-08-17T04:13:38.637Z,80.19
2023-08-17T04:16:05.486Z,80.36
2023-08-17T04:18:32.538Z,80.99
2023-08-17T04:20:59.470Z,81.21
2023-08-17T04:23:26.763Z,80.80
2023-08-17T04:25:55.929Z,80.47
2023-08-17T04:28:22.872Z,80.71
2023-08-17T04:30:49.714Z,80.25
2023-08-17T04:33:16.413Z,79.91
2023-08-17T04:35:43.251Z,79.43
2023-08-17T04:38:10.124Z,80.31
2023-08-17T04:40:36.943Z,80.72
2023-08-17T04:43:04.162Z,80.73
2023-08-17T04:45:31.051Z,80.41
2023-08-17T04:47:57.921Z,79.84
2023-08-17T04:50:24.893Z,79.28
2023-08-17T04:52:51.657Z,79.16
2023-08-17T04:55:18.411Z,78.57
2023-08-17T04:57:45.405Z,80.02
2023-08-17T05:00:13.782Z,79.94
2023-08-17T05:02:40.900Z,79.86
2023-08-17T05:05:09.913Z,80.56
2023-08-17T05:07:36.794Z,80.27
2023-08-17T05:10:03.981Z,79.48
2023-08-17T05:12:30.884Z,79.56
2023-08-17T05:14:57.659Z,78.92
2023-08-17T05:17:24.818Z,79.01
2023-08-17T05:19:52.821Z,79.22
2023-08-17T05:22:19.583Z,78.77
2023-08-17T05:24:46.396Z,78.59
2023-08-17T05:27:13.314Z,80.64
2023-08-17T05:29:40.089Z,84.30
2023-08-17T05:32:07.272Z,83.06
2023-08-17T05:34:34.147Z,81.47
2023-08-17T05:37:00.894Z,81.91
2023-08-17T05:39:29.900Z,80.72
2023-08-17T05:41:56.682Z,80.65
2023-08-17T05:44:23.514Z,80.05
2023-08-17T05:46:50.340Z,79.74
2023-08-17T05:49:25.468Z,79.66
2023-08-17T05:51:52.512Z,79.31
2023-08-17T05:54:19.360Z,78.44
2023-08-17T05:56:48.383Z,78.79
2023-08-17T05:59:15.367Z,78.13
2023-08-17T06:01:42.483Z,78.84
2023-08-17T06:04:09.281Z,79.01
2023-08-17T06:06:36.158Z,78.06
2023-08-17T06:09:03.185Z,78.43
2023-08-17T06:11:29.931Z,79.24
2023-08-17T06:14:17.298Z,78.93
2023-08-17T06:16:44.236Z,78.89
2023-08-17T06:19:10.965Z,79.56
2023-08-17T06:21:37.745Z,79.13
2023-08-17T06:24:05.561Z,77.91
2023-08-17T06:26:32.570Z,77.72
2023-08-17T06:28:59.566Z,78.42
2023-08-17T06:31:28.812Z,79.17
2023-08-17T06:33:56.094Z,78.78
2023-08-17T06:36:22.949Z,78.37
2023-08-17T06:38:49.970Z,78.91
2023-08-17T06:41:17.786Z,78.37
2023-08-17T06:43:44.593Z,77.53
2023-08-17T06:46:11.556Z,77.89
2023-08-17T06:48:38.573Z,76.77
2023-08-17T06:51:06.395Z,77.78
2023-08-17T06:53:42.354Z,76.65
2023-08-17T06:56:10.813Z,76.01
2023-08-17T06:59:00.384Z,76.45
2023-08-17T07:01:27.819Z,75.49
2023-08-17T07:03:54.729Z,74.97
2023-08-17T07:06:21.763Z,75.13
2023-08-17T07:08:48.825Z,74.81
2023-08-17T07:11:15.838Z,73.90
2023-08-17T07:13:43.038Z,73.72
2023-08-17T07:16:10.029Z,72.93
2023-08-17T07:18:37.237Z,72.12
2023-08-17T07:21:04.082Z,72.38
2023-08-17T07:23:30.833Z,71.56
2023-08-17T07:25:57.717Z,72.17
2023-08-17T07:28:24.566Z,71.60
2023-08-17T07:30:51.311Z,71.20
2023-08-17T07:33:21.133Z,70.70
2023-08-17T07:35:47.989Z,70.75
2023-08-17T07:38:14.813Z,70.14
2023-08-17T07:40:44.200Z,69.83
2023-08-17T07:43:11.131Z,69.88
2023-08-17T07:45:40.447Z,69.90
2023-08-17T07:48:07.648Z,70.24
2023-08-17T07:50:42.537Z,69.78
2023-08-17T07:53:09.672Z,69.90
2023-08-17T07:58:08.378Z,70.43
2023-08-17T08:00:35.142Z,69.78
2023-08-17T08:03:06.584Z,67.90
2023-08-17T08:05:33.677Z,67.98
2023-08-17T08:08:00.714Z,67.35
2023-08-17T08:10:29.211Z,66.78
2023-08-17T08:12:58.086Z,68.43
2023-08-17T08:15:24.830Z,67.04
2023-08-17T08:17:51.990Z,67.24
2023-08-17T08:20:19.023Z,66.18
2023-08-17T08:22:48.729Z,66.28
2023-08-17T08:25:15.878Z,65.17
2023-08-17T08:27:43.144Z,65.31
2023-08-17T08:30:10.420Z,65.67
2023-08-17T08:32:37.351Z,65.61
2023-08-17T08:35:04.513Z,65.38
2023-08-17T08:37:31.287Z,65.31
2023-08-17T08:40:00.835Z,65.17
2023-08-17T08:42:27.854Z,65.14
2023-08-17T08:44:54.936Z,63.27
2023-08-17T08:47:22.861Z,63.65
2023-08-17T08:50:04.732Z,64.03
2023-08-17T08:52:43.992Z,64.24
2023-08-17T08:55:46.097Z,63.76
2023-08-17T08:58:13.816Z,63.62
2023-08-17T09:00:43.135Z,62.41
2023-08-17T09:03:11.287Z,61.85
2023-08-17T09:05:38.726Z,61.57
2023-08-17T09:08:09.933Z,61.83
2023-08-17T09:10:38.981Z,61.87
2023-08-17T09:13:06.381Z,61.50
2023-08-17T09:15:33.249Z,61.52
2023-08-17T09:18:05.048Z,61.56
2023-08-17T09:20:48.568Z,60.43
2023-08-17T09:23:21.099Z,59.16
2023-08-17T09:25:49.689Z,58.07
2023-08-17T09:28:18.495Z,57.87
2023-08-17T09:30:55.115Z,57.58
2023-08-17T09:33:26.856Z,58.41
2023-08-17T09:38:28.420Z,59.29
2023-08-17T09:40:56.160Z,58.93
2023-08-17T09:43:23.627Z,60.04
2023-08-17T09:46:10.328Z,61.58
2023-08-17T09:48:37.773Z,61.28
2023-08-17T09:51:06.697Z,60.30
2023-08-17T09:53:40.440Z,58.24
2023-08-17T09:56:17.662Z,58.55
2023-08-17T09:58:45.229Z,57.95
2023-08-17T10:01:14.762Z,54.85
2023-08-17T10:03:51.183Z,55.77
2023-08-17T10:08:58.929Z,57.26
2023-08-17T10:11:29.655Z,55.95
2023-08-17T10:14:11.850Z,56.05
2023-08-17T10:16:55.172Z,56.26
2023-08-17T10:19:35.566Z,56.07
2023-08-17T10:24:46.880Z,55.97
2023-08-17T10:27:15.001Z,55.98
2023-08-17T10:29:43.229Z,54.50
2023-08-17T10:32:10.184Z,54.04
2023-08-17T10:34:37.622Z,53.26
2023-08-17T10:37:05.060Z,52.13
2023-08-17T10:39:32.224Z,53.78
2023-08-17T10:41:59.894Z,52.14
2023-08-17T10:44:45.847Z,52.05
2023-08-17T10:47:35.660Z,50.92
2023-08-17T10:50:06.126Z,50.05
2023-08-17T10:52:34.909Z,52.22
2023-08-17T10:55:03.376Z,51.54
2023-08-17T10:57:37.233Z,51.21
2023-08-17T11:00:22.039Z,49.92
2023-08-17T11:02:57.295Z,49.58
2023-08-17T11:05:51.052Z,49.44
2023-08-17T11:08:22.133Z,49.05
2023-08-17T11:11:02.246Z,49.53
2023-08-17T11:13:32.091Z,49.36
2023-08-17T11:16:03.400Z,49.38
2023-08-17T11:18:31.758Z,48.36
2023-08-17T11:20:59.099Z,47.75
2023-08-17T11:23:26.503Z,49.16
2023-08-17T11:25:56.413Z,47.39
2023-08-17T11:28:24.637Z,47.11
2023-08-17T11:30:59.127Z,46.84
2023-08-17T11:33:30.364Z,47.08
2023-08-17T11:36:03.128Z,44.96
2023-08-17T11:38:43.840Z,45.29
2023-08-17T11:41:18.422Z,43.38
2023-08-17T11:43:46.841Z,46.23
2023-08-17T11:46:13.932Z,46.76
2023-08-17T11:48:40.898Z,46.22
2023-08-17T11:51:07.974Z,45.82
2023-08-17T11:53:40.245Z,44.28
2023-08-17T11:56:10.003Z,42.75
2023-08-17T11:58:48.137Z,44.91
2023-08-17T12:01:17.971Z,45.33
2023-08-17T12:03:46.149Z,46.03
2023-08-17T12:06:16.682Z,46.62
2023-08-17T12:08:47.452Z,46.54
2023-08-17T12:11:15.035Z,45.32
2023-08-17T12:13:43.953Z,42.06
2023-08-17T12:16:16.739Z,42.90
2023-08-17T12:18:48.802Z,43.52
2023-08-17T12:21:15.717Z,42.75
2023-08-17T12:23:43.402Z,42.16
2023-08-17T12:26:10.215Z,41.85
2023-08-17T12:28:37.640Z,39.91
2023-08-17T12:31:04.849Z,42.70
2023-08-17T12:33:32.042Z,41.28
2023-08-17T12:35:58.894Z,42.90
2023-08-17T12:38:26.710Z,41.98
2023-08-17T12:40:54.671Z,41.35
2023-08-17T12:43:21.671Z,42.39
2023-08-17T12:45:48.632Z,41.47
2023-08-17T12:48:15.345Z,41.61
2023-08-17T12:50:43.782Z,40.35
2023-08-17T12:53:11.293Z,41.45
2023-08-17T12:55:40.638Z,40.85
2023-08-17T12:58:10.659Z,40.54
2023-08-17T13:00:38.041Z,39.91
2023-08-17T13:03:05.448Z,39.77
2023-08-17T13:05:32.399Z,40.69
2023-08-17T13:08:01.045Z,41.20
2023-08-17T13:10:27.929Z,41.50
2023-08-17T13:12:57.995Z,41.92
2023-08-17T13:15:24.847Z,40.99
2023-08-17T13:17:51.827Z,41.19
2023-08-17T13:20:18.824Z,40.76
2023-08-17T13:22:45.615Z,40.26
2023-08-17T13:25:12.450Z,39.30
2023-08-17T13:27:39.388Z,38.68
2023-08-17T13:30:06.773Z,40.14
2023-08-17T13:32:33.797Z,40.00
2023-08-17T13:35:00.678Z,41.09
2023-08-17T13:37:29.130Z,41.34
2023-08-17T13:39:57.636Z,39.76
2023-08-17T13:42:24.563Z,39.56
2023-08-17T13:44:51.983Z,40.88
2023-08-17T13:47:18.797Z,39.74
2023-08-17T13:49:46.289Z,40.77
2023-08-17T13:52:13.280Z,41.13
2023-08-17T13:54:40.055Z,40.37
2023-08-17T13:57:06.901Z,39.69
2023-08-17T13:59:33.592Z,38.83
2023-08-17T14:02:01.510Z,39.21
2023-08-17T14:04:28.357Z,38.44
2023-08-17T14:06:55.191Z,40.21
2023-08-17T14:09:22.132Z,38.66
2023-08-17T14:11:48.961Z,38.89
2023-08-17T14:14:15.985Z,38.12
2023-08-17T14:16:43.771Z,39.82
2023-08-17T14:19:10.872Z,37.29
2023-08-17T14:21:37.662Z,36.88
2023-08-17T14:24:05.369Z,37.84
2023-08-17T14:26:33.161Z,38.50
2023-08-17T14:29:00.646Z,38.14
2023-08-17T14:31:27.554Z,37.26
2023-08-17T14:33:55.997Z,38.31
2023-08-17T14:36:23.030Z,37.71
2023-08-17T14:38:49.814Z,38.97
2023-08-17T14:41:17.136Z,38.93
2023-08-17T14:43:43.987Z,38.25
2023-08-17T14:46:15.247Z,38.85
2023-08-17T14:48:45.736Z,40.79
2023-08-17T14:51:13.420Z,41.11
2023-08-17T14:53:40.451Z,40.51
2023-08-17T14:56:07.607Z,41.07
2023-08-17T14:58:34.527Z,41.14
2023-08-17T15:01:02.369Z,40.45
2023-08-17T15:03:29.516Z,40.57
2023-08-17T15:05:56.535Z,41.91
2023-08-17T15:08:25.280Z,42.17
2023-08-17T15:10:52.170Z,41.92
2023-08-17T15:13:19.674Z,42.18
2023-08-17T15:15:46.683Z,42.59
2023-08-17T15:18:13.650Z,44.34
2023-08-17T15:20:42.351Z,44.43
2023-08-17T15:23:09.554Z,44.66
2023-08-17T15:25:36.545Z,43.94
2023-08-17T15:28:03.457Z,43.92
2023-08-17T15:30:30.763Z,44.35
2023-08-17T15:33:00.846Z,44.43
2023-08-17T15:35:27.739Z,44.56
2023-08-17T15:37:55.283Z,43.83
2023-08-17T15:40:22.278Z,43.15
2023-08-17T15:42:49.173Z,43.49
2023-08-17T15:45:19.208Z,43.20
2023-08-17T15:47:46.519Z,42.25
2023-08-17T15:50:15.215Z,41.90
2023-08-17T15:52:42.390Z,41.79
2023-08-17T15:55:09.478Z,41.63
2023-08-17T15:57:37.894Z,41.38
2023-08-17T16:00:05.363Z,41.21
2023-08-17T16:02:32.240Z,40.43
2023-08-17T16:04:59.031Z,39.94
2023-08-17T16:07:26.124Z,39.58
2023-08-17T16:09:53.088Z,39.91
2023-08-17T16:12:19.897Z,40.07
2023-08-17T16:14:49.530Z,40.67
2023-08-17T16:17:16.831Z,42.35
2023-08-17T16:19:43.668Z,42.07
2023-08-17T16:22:10.408Z,42.32
2023-08-17T16:24:37.125Z,43.16
2023-08-17T16:27:04.100Z,43.30
2023-08-17T16:29:30.875Z,43.78
2023-08-17T16:32:08.714Z,43.75
2023-08-17T16:34:37.072Z,43.66
2023-08-17T16:37:04.071Z,43.58
2023-08-17T16:39:31.016Z,44.28
2023-08-17T16:41:58.473Z,44.48
2023-08-17T16:44:28.102Z,45.38
2023-08-17T16:46:55.730Z,45.89
2023-08-17T16:49:29.768Z,47.03
2023-08-17T16:51:57.312Z,47.63
2023-08-17T16:54:24.113Z,48.37
2023-08-17T16:56:53.661Z,48.97
2023-08-17T16:59:21.067Z,48.88
2023-08-17T17:01:49.162Z,48.69
2023-08-17T17:04:16.267Z,49.25
2023-08-17T17:06:44.488Z,49.70
2023-08-17T17:09:11.252Z,48.35
2023-08-17T17:11:38.268Z,48.63
2023-08-17T17:14:05.679Z,47.99
2023-08-17T17:16:32.541Z,47.57
2023-08-17T17:18:59.400Z,47.72
2023-08-17T17:21:26.308Z,47.49
2023-08-17T17:23:53.243Z,47.24
2023-08-17T17:26:21.786Z,47.43
2023-08-17T17:28:48.922Z,47.68
2023-08-17T17:31:15.692Z,47.38
2023-08-17T17:33:42.450Z,48.18
2023-08-17T17:36:09.474Z,47.59
2023-08-17T17:38:36.326Z,48.55
2023-08-17T17:41:03.131Z,48.13
2023-08-17T17:43:29.936Z,48.74
2023-08-17T17:45:56.810Z,48.54
2023-08-17T17:48:23.681Z,48.63
2023-08-17T17:50:50.337Z,48.54
2023-08-17T17:53:17.330Z,48.88
2023-08-17T17:55:44.176Z,48.99
2023-08-17T17:58:11.301Z,48.61
2023-08-17T18:00:39.572Z,48.92
2023-08-17T18:03:14.968Z,49.15
2023-08-17T18:05:45.888Z,49.25
2023-08-17T18:08:15.807Z,49.51
2023-08-17T18:10:43.944Z,49.71
2023-08-17T18:13:11.134Z,49.88
2023-08-17T18:15:39.522Z,49.75
2023-08-17T18:18:07.553Z,50.29
2023-08-17T18:20:34.673Z,50.27
2023-08-17T18:23:02.350Z,49.82
2023-08-17T18:25:33.661Z,50.45
2023-08-17T18:28:00.774Z,50.23
2023-08-17T18:30:27.995Z,50.91
2023-08-17T18:32:58.400Z,51.64
2023-08-17T18:35:25.353Z,51.92
2023-08-17T18:37:52.613Z,51.96
2023-08-17T18:40:21.572Z,52.08
2023-08-17T18:42:50.474Z,51.80
2023-08-17T18:45:20.609Z,51.93
2023-08-17T18:47:47.965Z,52.58
2023-08-17T18:50:16.269Z,52.78
2023-08-17T18:52:44.037Z,52.31
2023-08-17T18:55:13.792Z,52.75
2023-08-17T18:57:41.618Z,52.33
2023-08-17T19:00:12.992Z,52.60
2023-08-17T19:02:41.263Z,52.07
2023-08-17T19:05:09.447Z,51.96
2023-08-17T19:07:36.372Z,52.23
2023-08-17T19:10:03.512Z,52.29
2023-08-17T19:12:31.024Z,52.28
2023-08-17T19:14:57.824Z,51.95
2023-08-17T19:17:24.671Z,52.71
2023-08-17T19:19:51.586Z,52.99
2023-08-17T19:22:19.868Z,53.65
2023-08-17T19:24:46.658Z,53.35
2023-08-17T19:27:13.576Z,53.04
2023-08-17T19:29:40.498Z,54.38
2023-08-17T19:32:07.915Z,57.02
2023-08-17T19:34:34.812Z,57.07
2023-08-17T19:37:01.885Z,57.11
2023-08-17T19:39:28.612Z,56.43
2023-08-17T19:41:56.075Z,56.60
2023-08-17T19:44:23.021Z,55.78
2023-08-17T19:46:49.769Z,55.87
2023-08-17T19:49:16.609Z,55.87
2023-08-17T19:51:45.219Z,56.61
2023-08-17T19:54:13.322Z,56.38
2023-08-17T19:56:40.861Z,56.23
2023-08-17T19:59:07.617Z,55.91
2023-08-17T20:01:35.114Z,55.68
2023-08-17T20:04:02.931Z,55.90
2023-08-17T20:06:32.986Z,55.73
2023-08-17T20:08:59.890Z,56.40
2023-08-17T20:11:28.142Z,57.30
2023-08-17T20:13:54.893Z,57.66
2023-08-17T20:16:21.894Z,57.90
2023-08-17T20:18:48.787Z,57.71
2023-08-17T20:21:16.028Z,58.36
2023-08-17T20:23:44.831Z,58.59
2023-08-17T20:26:13.174Z,58.69
2023-08-17T20:28:40.960Z,58.58
2023-08-17T20:31:08.114Z,58.50
2023-08-17T20:33:34.920Z,59.40
2023-08-17T20:36:01.717Z,58.78
2023-08-17T20:38:28.547Z,58.57
2023-08-17T20:40:55.352Z,58.28
2023-08-17T20:43:22.609Z,58.58
2023-08-17T20:45:49.684Z,58.45
2023-08-17T20:48:16.573Z,58.25
2023-08-17T20:50:47.731Z,57.96
2023-08-17T20:53:16.343Z,57.89
2023-08-17T20:55:43.658Z,57.35
2023-08-17T20:58:10.649Z,57.84
2023-08-17T21:00:37.540Z,57.91
2023-08-17T21:03:05.777Z,57.63
2023-08-17T21:05:33.157Z,58.29
2023-08-17T21:08:00.423Z,58.00
2023-08-17T21:10:27.953Z,57.96
2023-08-17T21:12:54.831Z,58.22
2023-08-17T21:15:21.653Z,58.32
2023-08-17T21:17:48.629Z,59.25
2023-08-17T21:20:15.845Z,59.12
2023-08-17T21:22:52.273Z,59.83
2023-08-17T21:25:20.271Z,59.65
2023-08-17T21:27:47.919Z,60.32
2023-08-17T21:30:16.764Z,60.35
2023-08-17T21:32:43.705Z,60.37
2023-08-17T21:35:12.769Z,60.36
2023-08-17T21:37:41.597Z,60.33
2023-08-17T21:40:09.142Z,60.61
2023-08-17T21:42:36.054Z,60.59
2023-08-17T21:45:03.124Z,60.48
2023-08-17T21:47:30.335Z,60.35
2023-08-17T21:49:57.544Z,60.42
2023-08-17T21:52:24.354Z,60.00
2023-08-17T21:54:51.506Z,60.35
2023-08-17T21:57:19.291Z,60.25
2023-08-17T21:59:46.125Z,60.13
2023-08-17T22:02:12.975Z,60.46
2023-08-17T22:04:39.909Z,60.42
2023-08-17T22:07:06.983Z,60.69
2023-08-17T22:09:34.719Z,60.78
2023-08-17T22:12:03.036Z,60.66
2023-08-17T22:14:32.871Z,60.80
2023-08-17T22:16:59.656Z,61.99
2023-08-17T22:19:28.075Z,62.04
2023-08-17T22:21:55.300Z,62.43
2023-08-17T22:24:22.276Z,62.03
2023-08-17T22:26:51.722Z,62.20
2023-08-17T22:29:21.309Z,63.47
2023-08-17T22:31:49.082Z,63.48
2023-08-17T22:34:15.886Z,63.57
2023-08-17T22:36:42.663Z,62.69
2023-08-17T22:39:09.462Z,62.97
2023-08-17T22:41:37.187Z,62.31
2023-08-17T22:44:04.181Z,62.41
2023-08-17T22:46:30.899Z,62.02
2023-08-17T22:48:57.701Z,61.60
2023-08-17T22:51:26.877Z,62.18
2023-08-17T22:53:53.856Z,62.95
2023-08-17T22:56:21.023Z,63.02
2023-08-17T22:58:47.882Z,62.77
2023-08-17T23:01:14.658Z,64.35
2023-08-17T23:03:41.554Z,65.41
2023-08-17T23:06:08.539Z,66.29
2023-08-17T23:08:36.847Z,65.92
2023-08-17T23:11:04.269Z,65.93
2023-08-17T23:13:31.018Z,66.20
2023-08-17T23:15:57.836Z,66.42
2023-08-17T23:18:24.747Z,66.03
2023-08-17T23:20:51.754Z,65.55
2023-08-17T23:23:19.038Z,65.18
2023-08-17T23:25:46.116Z,65.28
2023-08-17T23:28:13.295Z,65.00
2023-08-17T23:30:41.020Z,64.97
2023-08-17T23:33:09.268Z,64.05
2023-08-17T23:35:36.641Z,64.08
2023-08-17T23:38:03.564Z,64.22
2023-08-17T23:40:30.436Z,65.24
2023-08-17T23:42:57.509Z,65.42
2023-08-17T23:45:24.523Z,64.92
2023-08-17T23:47:51.401Z,65.40
2023-08-17T23:50:18.303Z,65.58
2023-08-17T23:52:45.247Z,65.89
2023-08-17T23:55:12.705Z,65.36
2023-08-17T23:57:39.568Z,65.20
